Map Display - OSDI to OIAA
(last flight recorded 17-02-2020, 20:22 - Adrian Smith)

Aircraft Weights    Units : Maximums
Passengers :   70  
Cargo : kg 2,520 kg
Suggested Fuel Load : kg 13,370 kg
 
     
 
Dry Operating : 19,625 kg    
Total Payload : 0 kg 8,450 kg
 
Take Off : 22,914 kg 33,112 kg
 
Expected Landing : 20,753 kg ? kg

Adrian Smith,  DC4 ,  G-ARJY,  .

Route Distance Previous
Flights
Average
Duration
Average
Fuel Flow
Average
Fuel Use
OSDI - Damascus Intl, Syria
OIAA - Abadan, Iran
625 nm 1 03:06 705 kg/h 2,161 kg

Current weather :-
2020/02/17 18:45
TAF TAF OSDI 171700Z 1718/1824 04010KT 9999 FEW030 SCT100
TEMPO 1812/1824 124015G25KT 6000 SHRA FEW025CB SCT030 BKN090
2020/02/18 06:45
TAF TAF OIAA 180530Z 1806/1912 12008KT 7000 FEW040 BKN100
TEMPO 1806/1816 FEW030CB SCT035 BKN090 PROB30 RA
TEMPO 1818/1824 4000 DU
BECMG 1900/1902 SCT030 BKN100
BECMG 1906/1908 FEW030CB SCT035 OVC100
BECMG 1910/1912 4000 SHRA

Back to Virtual Airline